• Join FlightAware (Why Join?)
  • Login
  • US Flag 
09:54PM EDT


 

Airport Tracker/Info


-or-


 

Live Flight TrackerFlight Track Log ✈ N702H ✈ 22-Mar-2014 ✈ KBVO - KMTJ

Flight Track Log - Related Links

Times and Time Zones

All times are in EDT time to prevent confusion due to time zone crossing. See the N702H flight status page for this flight to view local times or setup timezone preferences in your user account.

Time Position Orientation Groundspeed Altitude Reporting Facility
EDT Latitude Longitude Course Direction KTS MPH feet Rate Location/Type
01:12PM 36.8028 -96.1408 287° West 133 153 5,300  Level Kansas City Center
01:13PM 36.8158 -96.1942 287° West 151 174 6,700 1,260 Climbing Kansas City Center
01:14PM 36.8286 -96.2500 286° West 163 188 7,900 1,200 Climbing Kansas City Center
01:15PM 36.8392 -96.3033 284° West 163 188 9,300 1,380 Climbing Kansas City Center
01:16PM 36.8475 -96.3569 281° West 160 184 10,800 1,440 Climbing Kansas City Center
01:17PM 36.8694 -96.4008 302° West 156 180 12,300 1,380 Climbing Kansas City Center
01:18PM 36.8989 -96.4367 316° Northwest 150 173 13,700 1,560 Climbing Kansas City Center
01:19PM 36.9272 -96.4797 309° West 137 158 15,500 1,440 Climbing Kansas City Center
01:20PM 36.9531 -96.5128 314° West 135 155 16,800 1,140 Climbing Kansas City Center
01:21PM 36.9736 -96.5481 306° West 130 150 17,900 1,140 Climbing Kansas City Center
01:22PM 36.9800 -96.5900 281° West 124 143 19,200 1,200 Climbing Kansas City Center
01:23PM 36.9881 -96.6289 285° West 120 138 20,400 1,140 Climbing Kansas City Center
01:24PM 36.9953 -96.6697 282° West 120 138 21,600 1,260 Climbing Kansas City Center
01:26PM 37.0044 -96.7192 283° West 120 138 23,100 1,260 Climbing Kansas City Center
01:27PM 37.0128 -96.7611 284° West 121 139 24,300 1,140 Climbing Kansas City Center
01:28PM 37.0200 -96.8003 283° West 121 139 25,500 780 Climbing Kansas City Center
01:29PM 37.0272 -96.8406 283° West 121 139 26,000 240 Climbing Kansas City Center
01:30PM 37.0364 -96.9025 281° West 168 193 26,000  Level Kansas City Center
01:31PM 37.0542 -96.9836 285° West 196 226 26,000  Level Kansas City Center
01:32PM 37.0669 -97.0533 283° West 202 232 26,000  Level Kansas City Center
01:33PM 37.0792 -97.1250 282° West 205 236 26,000  Level Kansas City Center
01:34PM 37.0928 -97.1969 283° West 209 241 26,000  Level Kansas City Center
01:35PM 37.1044 -97.2675 282° West 209 241 26,000  Level Kansas City Center
01:36PM 37.1175 -97.3386 283° West 209 241 26,000  Level Kansas City Center
01:37PM 37.1319 -97.4242 282° West 209 241 26,000  Level Kansas City Center
01:38PM 37.1458 -97.4958 284° West 209 241 26,000  Level Kansas City Center
01:39PM 37.1583 -97.5675 282° West 210 242 26,000  Level Kansas City Center
01:40PM 37.1700 -97.6394 282° West 210 242 26,000  Level Kansas City Center
01:41PM 37.1825 -97.7103 283° West 209 241 26,000  Level Kansas City Center
01:42PM 37.1953 -97.7828 282° West 210 242 26,000  Level Kansas City Center
01:43PM 37.2111 -97.8683 283° West 210 242 26,000  Level Kansas City Center
01:44PM 37.2228 -97.9414 281° West 210 242 26,000  Level Kansas City Center
01:45PM 37.2358 -98.0139 283° West 211 243 26,000  Level Kansas City Center
01:46PM 37.2481 -98.0858 282° West 211 243 26,000  Level Kansas City Center
01:47PM 37.2617 -98.1569 284° West 211 243 26,000  Level Kansas City Center
01:48PM 37.2739 -98.2289 282° West 211 243 26,000  Level Kansas City Center
01:49PM 37.2856 -98.3003 282° West 210 242 26,000  Level Kansas City Center
01:50PM 37.2994 -98.3861 282° West 210 242 26,000  Level Kansas City Center
01:51PM 37.3122 -98.4575 283° West 210 242 26,000  Level Kansas City Center
01:52PM 37.3242 -98.5300 282° West 210 242 26,000  Level Kansas City Center
01:53PM 37.3358 -98.6011 282° West 210 242 26,000  Level Kansas City Center
01:54PM 37.3486 -98.6728 283° West 210 242 26,000  Level Kansas City Center
01:55PM 37.3600 -98.7450 281° West 210 242 26,000  Level Kansas City Center
01:57PM 37.3736 -98.8314 281° West 210 242 26,000  Level Kansas City Center
01:58PM 37.3869 -98.9006 284° West 210 242 26,000  Level Kansas City Center
01:59PM 37.3978 -98.9714 281° West 210 242 26,000  Level Kansas City Center
02:00PM 37.4092 -99.0444 281° West 210 242 26,000  Level Kansas City Center
02:01PM 37.4214 -99.1167 282° West 210 242 26,000  Level Kansas City Center
02:02PM 37.4331 -99.1883 282° West 210 242 26,000  Level Kansas City Center
02:03PM 37.4469 -99.2739 282° West 210 242 26,000  Level Kansas City Center
02:04PM 37.4586 -99.3461 282° West 210 242 26,000  Level Kansas City Center
02:05PM 37.4719 -99.4175 283° West 210 242 26,000  Level Kansas City Center
02:06PM 37.4819 -99.4950 279° West 209 241 26,000  Level Kansas City Center
02:07PM 37.4939 -99.5642 282° West 209 241 26,000  Level Kansas City Center
02:08PM 37.5069 -99.6453 281° West 209 241 26,000  Level Kansas City Center
02:09PM 37.5178 -99.7150 281° West 209 241 26,000  Level Kansas City Center
02:10PM 37.5311 -99.7956 282° West 210 242 26,000  Level Kansas City Center
02:11PM 37.5419 -99.8672 281° West 211 243 26,000  Level Kansas City Center
02:12PM 37.5553 -99.9478 282° West 212 244 26,000  Level Kansas City Center
02:13PM 37.5661 -100.0172 281° West 212 244 26,000  Level Kansas City Center
02:14PM 37.5786 -100.0981 281° West 211 243 26,000  Level Kansas City Center
02:15PM 37.5892 -100.1686 281° West 211 243 26,000  Level Kansas City Center
02:16PM 37.6011 -100.2503 280° West 212 244 26,000  Level Kansas City Center
02:17PM 37.6122 -100.3206 281° West 212 244 26,000  Level Kansas City Center
02:18PM 37.6250 -100.4031 281° West 212 244 26,000  Level Kansas City Center
02:19PM 37.6361 -100.4742 281° West 212 244 26,000  Level Kansas City Center
02:20PM 37.6461 -100.5436 280° West 213 245 26,000  Level Kansas City Center
02:21PM 37.6603 -100.6319 281° West 213 245 26,000  Level Kansas City Center
02:22PM 37.6706 -100.7050 280° West 213 245 26,000  Level Kansas City Center
02:23PM 37.6819 -100.7772 281° West 213 245 26,000  Level Kansas City Center
02:24PM 37.6933 -100.8503 281° West 213 245 26,000  Level Kansas City Center
02:26PM 37.7028 -100.9239 279° West 212 244 26,000  Level Kansas City Center
02:27PM 37.7131 -100.9997 280° West 215 247 26,000  Level Kansas City Center
02:28PM 37.7239 -101.0728 281° West 214 246 26,000  Level Kansas City Center
02:29PM 37.7367 -101.1614 280° West 214 246 26,000  Level Kansas City Center
02:30PM 37.7472 -101.2317 281° West 214 246 26,000  Level Kansas City Center
02:31PM 37.7589 -101.3136 280° West 214 246 26,000  Level Kansas City Center
02:32PM 37.7686 -101.3844 280° West 214 246 26,000  Level Kansas City Center
02:33PM 37.7803 -101.4669 280° West 214 246 26,000  Level Kansas City Center
02:34PM 37.7908 -101.5381 281° West 214 246 26,000  Level Kansas City Center
02:35PM 37.8028 -101.6200 280° West 214 246 26,000  Level Kansas City Center
02:36PM 37.8128 -101.6919 280° West 214 246 26,000  Level Kansas City Center
02:37PM 37.8219 -101.7631 279° West 214 246 26,000  Level Kansas City Center
02:38PM 37.8342 -101.8461 281° West 214 246 26,000  Level Kansas City Center
02:39PM 37.8442 -101.9164 280° West 214 246 26,000  Level Kansas City Center
02:40PM 37.8556 -101.9983 280° West 214 246 26,000  Level Kansas City Center
02:41PM 37.8644 -102.0686 279° West 214 246 26,000  Level Kansas City Center
02:42PM 37.8761 -102.1511 280° West 213 245 26,000  Level Kansas City Center
02:43PM 37.8864 -102.2228 280° West 214 246 26,000  Level Kansas City Center
02:44PM 37.8975 -102.3075 279° West 215 247 26,000  Level Kansas City Center
02:45PM 37.9061 -102.3789 279° West 215 247 26,000  Level Kansas City Center
02:46PM 37.9183 -102.4617 281° West 215 247 26,000  Level Kansas City Center
02:47PM 37.9272 -102.5339 279° West 215 247 26,000  Level Kansas City Center
02:48PM 37.9358 -102.6050 279° West 215 247 26,000  Level Kansas City Center
02:49PM 37.9483 -102.6881 281° West 215 247 26,000  Level Kansas City Center
02:50PM 37.9589 -102.7750 279° West 216 249 26,000  Level Denver Center
02:51PM 37.9700 -102.8583 280° West 216 249 26,000  Level Denver Center
02:53PM 37.9781 -102.9300 278° West 216 249 26,000  Level Denver Center
02:54PM 37.9903 -103.0139 280° West 216 249 26,000  Level Denver Center
02:55PM 37.9994 -103.0861 279° West 217 250 26,000  Level Denver Center
02:56PM 38.0103 -103.1706 279° West 217 250 26,000  Level Denver Center
02:57PM 38.0189 -103.2411 279° West 216 249 26,000  Level Denver Center
02:58PM 38.0289 -103.3225 279° West 213 245 26,000  Level Denver Center
02:59PM 38.0375 -103.3933 279° West 212 244 26,000  Level Denver Center
03:00PM 38.0467 -103.4633 279° West 212 244 26,000  Level Denver Center
03:01PM 38.0561 -103.5458 278° West 212 244 26,000  Level Denver Center
03:02PM 38.0653 -103.6161 279° West 212 244 26,000  Level Denver Center
03:03PM 38.0753 -103.6983 279° West 212 244 26,000  Level Denver Center
03:04PM 38.0836 -103.7675 279° West 211 243 26,000  Level Denver Center
03:05PM 38.0942 -103.8486 279° West 210 242 26,000  Level Denver Center
03:06PM 38.1025 -103.9203 278° West 212 244 26,000  Level Denver Center
03:07PM 38.1125 -104.0022 279° West 212 244 26,000  Level Denver Center
03:08PM 38.1203 -104.0725 278° West 212 244 26,000  Level Denver Center
03:09PM 38.1303 -104.1550 279° West 212 244 26,000  Level Denver Center
03:10PM 38.1389 -104.2239 279° West 210 242 26,000  Level Denver Center
03:11PM 38.1492 -104.3050 279° West 209 241 26,000  Level Denver Center
03:12PM 38.1553 -104.3744 276° West 208 239 26,000  Level Denver Center
03:13PM 38.1642 -104.4411 280° West 206 237 26,000  Level Denver Center
03:14PM 38.1719 -104.5203 277° West 205 236 26,000  Level Denver Center
03:15PM 38.1800 -104.5892 278° West 204 235 26,000  Level Denver Center
03:16PM 38.1908 -104.6719 279° West 207 238 26,000  Level Denver Center
03:17PM 38.1975 -104.7422 277° West 207 238 26,000  Level Denver Center
03:18PM 38.2081 -104.8253 279° West 210 242 26,000  Level Denver Center
03:19PM 38.2153 -104.8975 277° West 211 243 26,000  Level Denver Center
03:20PM 38.2250 -104.9775 279° West 211 243 26,000  Level Denver Center
03:21PM 38.2322 -105.0467 278° West 210 242 26,000  Level Denver Center
03:22PM 38.2408 -105.1275 278° West 208 239 26,000  Level Denver Center
03:23PM 38.2483 -105.1972 278° West 208 239 26,000  Level Denver Center
03:24PM 38.2556 -105.2656 278° West 207 238 26,000  Level Denver Center
03:26PM 38.2642 -105.3419 278° West 199 229 26,000  Level Denver Center
03:27PM 38.2728 -105.4103 279° West 200 230 26,000  Level Denver Center
03:28PM 38.2808 -105.4883 278° West 200 230 26,000  Level Denver Center
03:29PM 38.2869 -105.5547 277° West 200 230 26,000  Level Denver Center
03:30PM 38.2950 -105.6378 277° West 208 239 26,000  Level Denver Center
03:31PM 38.3031 -105.7106 278° West 213 245 26,000  Level Denver Center
03:32PM 38.3114 -105.7933 277° West 213 245 26,000  Level Denver Center
03:33PM 38.3194 -105.8622 278° West 207 238 26,000  Level Denver Center
03:34PM 38.3256 -105.9403 276° West 202 232 26,000  Level Denver Center
03:35PM 38.3328 -106.0072 278° West 201 231 26,000 -360 Level Denver Center
03:36PM 38.3269 -106.0806 264° West 210 242 25,300 -840 Descending Denver Center
03:37PM 38.3214 -106.1717 266° West 228 262 24,300 -960 Descending Denver Center
03:38PM 38.3169 -106.2556 266° West 244 281 23,400 -960 Descending Denver Center
03:39PM 38.3092 -106.3567 264° West 257 296 22,400 -900 Descending Denver Center
03:40PM 38.3036 -106.4467 266° West 257 296 21,600 -1,020 Descending Denver Center
03:41PM 38.2989 -106.5294 266° West 242 278 20,300 -840 Descending Denver Center
03:42PM 38.2933 -106.6117 265° West 237 273 19,900 -840 Descending Denver Center
03:43PM 38.2878 -106.6931 265° West 232 267 18,600 -1,200 Descending Denver Center
03:44PM 38.2808 -106.7939 265° West 234 269 17,500 -780 Descending Denver Center
03:45PM 38.2772 -106.8767 267° West 235 270 17,000 -600 Descending Denver Center
03:46PM 38.2722 -106.9492 265° West 219 252 16,300 -540 Descending Denver Center
03:47PM 38.2661 -107.0242 264° West 216 249 15,900 -240 Descending Denver Center
03:48PM 38.2619 -107.0956 266° West 211 243 15,900  Level Denver Center
03:49PM 38.2572 -107.1639 265° West 202 232 15,900  Level Denver Center
03:50PM 38.2511 -107.2425 264° West 193 222 15,900  Level Denver Center
03:52PM 38.2450 -107.3081 263° West 191 220 15,900  Level Denver Center
03:53PM 38.2403 -107.3872 266° West 191 220 15,900  Level Denver Center
03:54PM 38.2339 -107.4528 263° West 191 220 15,900  Level Denver Center
03:55PM 38.2306 -107.5214 266° West 190 219 15,900  Level Denver Center
03:56PM 38.2261 -107.5839 265° West 183 211 15,900  Level Denver Center
03:57PM 38.2214 -107.6419 264° West 173 199 15,900 -300 Level Denver Center
03:58PM 38.2047 -107.7042 251° West 158 182 15,300 -1,020 Descending Denver Center
03:59PM 38.1936 -107.7614 256° West 162 186 13,700 -1,800 Descending Denver Center
04:00PM 38.2167 -107.7458 28° Northeast 154 177 11,300 -1,200 Descending Denver Center
04:01PM 38.2208 -107.7400 48° Northeast 128 147 11,300  Level Denver Center
04:03PM 38.2990 -107.7800 338° Northwest  Level FlightAware Approximate
04:10PM 38.5000 -107.8833 338° Northwest  Level FlightAware Approximate
04:11PM 38.5098 -107.8942 319° Northwest  Level Estimated
04:12PM 38.5098 -107.8942 North  Level Estimated
04:13PM 38.5098 -107.8942 North  Level Estimated
04:14PM 38.5098 -107.8942 North  Level Estimated
04:15PM 38.5098 -107.8942 North  Level Estimated
04:16PM 38.5098 -107.8942 North  Level Estimated
04:17PM 38.5098 -107.8942 North  Level Estimated
04:18PM 38.5098 -107.8942 North  Level Estimated
04:19PM 38.5098 -107.8942 North  Level Estimated
04:20PM 38.5098 -107.8942 North  Level Estimated
04:21PM 38.5098 -107.8942 North  Level Estimated
04:22PM 38.5098 -107.8942 North  Level Estimated